Flight Track Log - Related Links

Times and Time Zones

All times are in EST time to prevent confusion due to time zone crossing. See the BOE1 flight status page for this flight to view local times or setup timezone preferences in your user account.

Time Position Orientation Groundspeed Altitude Reporting Facility
EST Latitude Longitude Course Direction KTS MPH feet Rate Location/Type
Sun 04:20:11 PM 47.5128 -122.2940 139° Southeast 162 186 1,100  Level Seattle Center
Sun 04:21:22 PM 47.4642 -122.2310 123° Southeast 226 260 3,800 2,262 Climbing Seattle Center
Sun 04:22:21 PM 47.4264 -122.1460 122° Southeast 236 272 6,000 5,647 Climbing Seattle Center
Sun 04:23:21 PM 47.3828 -122.0430 110° East 261 300 15,000 2,650 Climbing Seattle Center
Sun 04:24:21 PM 47.3556 -121.9350 107° East 266 306 11,300 -450 Descending Seattle Center
Sun 04:25:21 PM 47.3325 -121.8240 108° East 279 321 14,100 1,850 Climbing Seattle Center
Sun 04:26:21 PM 47.3056 -121.7010 108° East 293 337 15,000 500 Climbing Seattle Center
Sun 04:27:21 PM 47.2783 -121.5770 111° Southeast 306 352 15,100 50 Climbing Seattle Center
Sun 04:28:22 PM 47.2428 -121.4420 108° East 320 368 15,100  Level Seattle Center
Sun 04:29:21 PM 47.2114 -121.3000 111° Southeast 349 402 15,100 -101 Level Seattle Center
Sun 04:30:21 PM 47.1758 -121.1650 113° Southeast 355 409 14,900 -50 Descending Seattle Center
Sun 04:31:21 PM 47.1375 -121.0330 114° Southeast 355 409 15,000 100 Climbing Seattle Center
Sun 04:32:21 PM 47.0972 -120.8980 111° Southeast 355 409 15,100 100 Climbing Seattle Center
Sun 04:33:21 PM 47.0611 -120.7600 101° East 355 409 15,200 99 Climbing Seattle Center
Sun 04:34:22 PM 47.0414 -120.6170 107° East 360 414 15,300  Climbing Seattle Center
Sun 04:35:22 PM 47.0153 -120.4890 105° East 360 414 15,200 -150 Descending Seattle Center
Sun 04:36:22 PM 46.9889 -120.3450 107° East 360 414 15,000 -100 Descending Seattle Center
Sun 04:37:22 PM 46.9603 -120.2050 106° East 360 414 15,000  Level Seattle Center
Sun 04:38:21 PM 46.9336 -120.0710 103° East 355 409 15,000  Level Seattle Center
Sun 04:39:21 PM 46.9111 -119.9340 107° East 337 388 15,000  Level Seattle Center
Sun 04:40:21 PM 46.8861 -119.8130 115° Southeast 316 364 15,000  Level Seattle Center
Sun 04:41:21 PM 46.8508 -119.7010 119° Southeast 310 357 15,000 -500 Level Seattle Center
Sun 04:42:21 PM 46.8089 -119.5890 115° Southeast 305 351 14,000 -1,050 Descending Seattle Center
Sun 04:43:21 PM 46.7756 -119.4860 120° Southeast 298 343 12,900 -1,250 Descending Seattle Center
Sun 04:44:21 PM 46.7378 -119.3920 120° Southeast 293 337 11,500 -1,850 Descending Seattle Center
Sun 04:45:21 PM 46.6978 -119.2900 117° Southeast 293 337 9,200 -1,250 Descending Seattle Center
Sun 04:46:21 PM 46.6639 -119.1930 120° Southeast 285 328 9,000 -100 Descending Seattle Center
Sun 04:47:21 PM 46.6261 -119.0970 119° Southeast 278 320 9,000  Level Seattle Center
Sun 04:48:22 PM 46.5900 -119.0010 115° Southeast 278 320 9,000  Level Seattle Center
Sun 04:49:21 PM 46.5517 -118.8840 119° Southeast 277 319 9,000  Level Seattle Center
Sun 04:50:22 PM 46.5133 -118.7850 118° Southeast 282 325 9,000  Level Seattle Center
Sun 04:51:21 PM 46.4772 -118.6860 120° Southeast 282 325 9,000  Level Seattle Center
Sun 04:52:21 PM 46.4322 -118.5730 120° Southeast 299 344 9,000  Level Seattle Center
Sun 04:53:21 PM 46.3853 -118.4560 120° Southeast 320 368 9,000  Level Seattle Center
Sun 04:54:22 PM 46.3381 -118.3400 118° Southeast 333 383 9,000  Level Seattle Center
Sun 04:55:21 PM 46.2969 -118.2270 120° Southeast 328 377 9,000  Level Seattle Center
Sun 04:56:21 PM 46.2494 -118.1080 120° Southeast 328 377 9,000  Level Seattle Center
Sun 04:57:21 PM 46.2042 -117.9930 118° Southeast 328 377 9,000  Level Seattle Center
Sun 04:58:21 PM 46.1606 -117.8770 123° Southeast 329 379 9,000  Level Seattle Center
Sun 04:59:21 PM 46.1108 -117.7680 124° Southeast 329 379 9,000  Level Seattle Center
Sun 05:00:21 PM 46.0589 -117.6560 125° Southeast 329 379 9,000  Level Seattle Center
Sun 05:01:34 PM 46.0069 -117.5510 124° Southeast 335 386 9,000 45 Level Seattle Center
Sun 05:02:33 PM 45.9461 -117.4220 77° East 327 376 9,100 50 Climbing Seattle Center
Sun 05:03:34 PM 45.9644 -117.3110 335° Northwest 267 307 9,100  Level Seattle Center
Sun 05:04:34 PM 46.0469 -117.3670 291° West 153 176 9,100 50 Level Seattle Center
Sun 05:05:33 PM 46.0786 -117.4880 294° West 204 235 9,200 -50 Climbing Seattle Center
Sun 05:06:33 PM 46.1097 -117.5890 297° West 239 275 9,000 -100 Descending Seattle Center
Sun 05:07:33 PM 46.1514 -117.7070 293° West 281 323 9,000  Level Seattle Center
Sun 05:08:34 PM 46.1847 -117.8230 294° West 286 329 9,000  Level Seattle Center
Sun 05:09:33 PM 46.2200 -117.9380 293° West 301 346 9,000  Level Seattle Center
Sun 05:10:33 PM 46.2550 -118.0570 294° West 315 362 9,000  Level Seattle Center
Sun 05:11:33 PM 46.2900 -118.1730 296° West 315 362 9,000 50 Level Seattle Center
Sun 05:12:33 PM 46.3269 -118.2830 300° West 315 362 9,100 50 Climbing Seattle Center
Sun 05:13:33 PM 46.3700 -118.3930 296° West 315 362 9,100  Level Seattle Center
Sun 05:14:33 PM 46.4086 -118.5100 302° West 315 362 9,100 -50 Level Seattle Center
Sun 05:15:33 PM 46.4536 -118.6140 North 315 362 9,000 -50 Descending Seattle Center
Sun 05:16:33 PM 46.5389 -118.6030 35° Northeast 261 300 9,000  Level Seattle Center
Sun 05:17:33 PM 46.6150 -118.5260 32° Northeast 256 295 9,000 200 Level Seattle Center
Sun 05:18:33 PM 46.6933 -118.4550 34° Northeast 285 328 9,400 450 Climbing Seattle Center
Sun 05:19:33 PM 46.7694 -118.3800 32° Northeast 313 360 9,900 300 Climbing Seattle Center
Sun 05:20:33 PM 46.8497 -118.3080 34° Northeast 323 372 10,000 50 Climbing Seattle Center
Sun 05:21:33 PM 46.9258 -118.2340 32° Northeast 328 377 10,000  Level Seattle Center
Sun 05:22:33 PM 47.0061 -118.1610 33° Northeast 328 377 10,000  Level Seattle Center
Sun 05:23:33 PM 47.0861 -118.0860 32° Northeast 334 384 10,000  Level Seattle Center
Sun 05:24:33 PM 47.1642 -118.0130 33° Northeast 339 390 10,000  Level Seattle Center
Sun 05:25:33 PM 47.2422 -117.9370 30° Northeast 339 390 10,000  Level Seattle Center
Sun 05:26:00 PM 47.2750 -117.9090 36° Northeast 335 386 10,000  Level Seattle Center
Sun 05:26:33 PM 47.3200 -117.8610 32° Northeast 339 390 10,000  Level Seattle Center
Sun 05:27:33 PM 47.4000 -117.7880 34° Northeast 339 390 10,000  Level Seattle Center
Sun 05:28:33 PM 47.4778 -117.7110 33° Northeast 339 390 10,000  Level Seattle Center
Sun 05:29:33 PM 47.5575 -117.6350 28° Northeast 339 390 10,000  Level Seattle Center
Sun 05:30:00 PM 47.5861 -117.6120 36° Northeast 322 371 10,000  Level Seattle Center
Sun 05:30:33 PM 47.6331 -117.5610 30° Northeast 339 390 10,000  Level Seattle Center
Sun 05:31:33 PM 47.7150 -117.4900 21° North 339 390 10,000  Level Seattle Center
Sun 05:32:33 PM 47.7972 -117.4430 307° West 326 375 10,000  Level Seattle Center
Sun 05:33:34 PM 47.8447 -117.5370 275° West 239 275 10,000  Level Seattle Center
Sun 05:34:00 PM 47.8481 -117.5920 279° West 298 343 10,000  Level Seattle Center
Sun 05:34:34 PM 47.8553 -117.6570 280° West 230 265 10,000 516 Level Seattle Center
Sun 05:35:33 PM 47.8700 -117.7830 279° West 303 349 10,800 908 Climbing Seattle Center
Sun 05:36:33 PM 47.8825 -117.9060 280° West 320 368 11,800 1,100 Climbing Seattle Center
Sun 05:37:33 PM 47.8967 -118.0230 279° West 308 354 13,000 1,350 Climbing Seattle Center
Sun 05:38:33 PM 47.9086 -118.1310 274° West 288 331 14,500 1,250 Climbing Seattle Center
Sun 05:39:33 PM 47.9144 -118.2450 276° West 283 326 15,500 500 Climbing Seattle Center
Sun 05:40:33 PM 47.9222 -118.3590 276° West 283 326 15,500  Level Seattle Center
Sun 05:41:34 PM 47.9297 -118.4740 276° West 278 320 15,500  Level Seattle Center
Sun 05:42:33 PM 47.9372 -118.5880 275° West 278 320 15,500  Level Seattle Center
Sun 05:43:33 PM 47.9444 -118.7020 277° West 278 320 15,500  Level Seattle Center
Sun 05:44:33 PM 47.9539 -118.8170 275° West 278 320 15,500  Level Seattle Center
Sun 05:45:33 PM 47.9608 -118.9310 275° West 278 320 15,500  Level Seattle Center
Sun 05:46:33 PM 47.9678 -119.0460 275° West 278 320 15,500  Level Seattle Center
Sun 05:47:33 PM 47.9747 -119.1630 276° West 278 320 15,500  Level Seattle Center
Sun 05:48:33 PM 47.9836 -119.2810 275° West 289 333 15,500  Level Seattle Center
Sun 05:49:34 PM 47.9903 -119.4020 278° West 289 333 15,500 -100 Level Seattle Center
Sun 05:50:33 PM 48.0011 -119.5160 285° West 294 338 15,300 -101 Descending Seattle Center
Sun 05:51:33 PM 48.0222 -119.6340 292° West 294 338 15,300 -100 Level Seattle Center
Sun 05:52:33 PM 48.0533 -119.7480 284° West 294 338 15,100 -50 Descending Seattle Center
Sun 05:53:33 PM 48.0722 -119.8630 278° West 294 338 15,200 50 Climbing Seattle Center
Sun 05:54:33 PM 48.0825 -119.9780 259° West 294 338 15,200 50 Level Seattle Center
Sun 05:55:33 PM 48.0675 -120.0930 280° West 288 331 15,300 100 Climbing Seattle Center
Sun 05:56:33 PM 48.0817 -120.2110 277° West 288 331 15,400 100 Climbing Seattle Center
Sun 05:57:33 PM 48.0917 -120.3320 275° West 293 337 15,500 50 Climbing Seattle Center
Sun 05:58:33 PM 48.0994 -120.4530 275° West 293 337 15,500  Level Seattle Center
Sun 05:59:34 PM 48.1069 -120.5710 274° West 293 337 15,500  Level Seattle Center
Sun 06:00:33 PM 48.1122 -120.6920 275° West 293 337 15,500  Level Seattle Center
Sun 06:01:33 PM 48.1197 -120.8110 279° West 293 337 15,500  Level Seattle Center
Sun 06:02:33 PM 48.1311 -120.9230 275° West 293 337 15,500  Level Seattle Center
Sun 06:03:34 PM 48.1383 -121.0410 278° West 293 337 15,500  Level Seattle Center
Sun 06:04:33 PM 48.1494 -121.1590 337° Northwest 293 337 15,500  Level Seattle Center
Sun 06:05:34 PM 48.2197 -121.2040 62° Northeast 266 306 15,500  Level Seattle Center
Sun 06:06:33 PM 48.2583 -121.0930 107° East 181 208 15,500  Level Seattle Center
Sun 06:07:33 PM 48.2306 -120.9590 107° East 191 220 15,500  Level Seattle Center
Sun 06:08:33 PM 48.2008 -120.8150 108° East 273 314 15,500  Level Seattle Center
Sun 06:09:33 PM 48.1728 -120.6840 109° East 317 365 15,500 50 Level Seattle Center
Sun 06:10:33 PM 48.1425 -120.5560 105° East 327 376 15,600 150 Climbing Seattle Center
Sun 06:11:33 PM 48.1203 -120.4290 111° Southeast 327 376 15,800 198 Climbing Seattle Center
Sun 06:12:34 PM 48.0875 -120.3010 110° East 327 376 16,000 149 Climbing Seattle Center
Sun 06:13:34 PM 48.0569 -120.1760 108° East 327 376 16,100  Climbing Seattle Center
Sun 06:14:34 PM 48.0281 -120.0460 102° East 327 376 16,000 -50 Descending Seattle Center
Sun 06:15:33 PM 48.0097 -119.9160 102° East 321 369 16,000  Level Seattle Center
Sun 06:16:33 PM 47.9911 -119.7830 104° East 321 369 16,000  Level Seattle Center
Sun 06:17:33 PM 47.9700 -119.6560 99° East 316 364 16,000 -50 Level Seattle Center
Sun 06:18:34 PM 47.9553 -119.5190 72° East 316 364 15,900 -50 Descending Seattle Center
Sun 06:19:33 PM 47.9800 -119.4020 339° North 307 353 15,900 -101 Level Seattle Center
Sun 06:20:33 PM 48.0592 -119.4480 302° West 183 211 15,700 -50 Descending Seattle Center
Sun 06:21:33 PM 48.1031 -119.5530 135° Southeast 211 243 15,800 50 Climbing Seattle Center
Sun 06:22:33 PM 48.0656 -119.4970 90° East 38 44 15,800  Level Seattle Center
Sun 06:23:33 PM 48.0653 -119.3670 329° Northwest 183 211 15,800  Level Seattle Center
Sun 06:24:33 PM 48.1339 -119.4290 291° West 130 150 15,800  Level Seattle Center
Sun 06:25:33 PM 48.1633 -119.5430 179° South 194 223 15,800 -250 Level Seattle Center
Sun 06:26:33 PM 48.1092 -119.5410 94° East 91 105 15,300 -450 Descending Seattle Center
Sun 06:27:33 PM 48.1050 -119.4510 322° Northwest 102 117 14,900 100 Descending Seattle Center
Sun 06:28:33 PM 48.1653 -119.5220 272° West 136 157 15,500 250 Climbing Seattle Center
Sun 06:29:33 PM 48.1678 -119.6120 143° Southeast 155 178 15,400 -200 Descending Seattle Center
Sun 06:30:33 PM 48.1094 -119.5470 11° North 95 109 15,100 -99 Descending Seattle Center
Sun 06:31:34 PM 48.1758 -119.5280 273° West 104 120 15,200 200 Climbing Seattle Center
Sun 06:32:33 PM 48.1803 -119.6460 271° West 172 198 15,500 252 Climbing Seattle Center
Sun 06:33:33 PM 48.1822 -119.7760 270° West 244 281 15,700 150 Climbing Seattle Center
Sun 06:34:33 PM 48.1822 -119.9130 265° West 291 335 15,800 50 Climbing Seattle Center
Sun 06:35:34 PM 48.1736 -120.0470 274° West 309 356 15,800 150 Level Seattle Center
Sun 06:36:33 PM 48.1797 -120.1840 274° West 328 377 16,100 100 Climbing Seattle Center
Sun 06:37:34 PM 48.1853 -120.3170 276° West 328 377 16,000 -150 Descending Seattle Center
Sun 06:38:33 PM 48.1950 -120.4540 274° West 328 377 15,800 -150 Descending Seattle Center
Sun 06:39:34 PM 48.2006 -120.5880 272° West 328 377 15,700 -150 Descending Seattle Center
Sun 06:40:33 PM 48.2036 -120.7250 267° West 328 377 15,500 -202 Descending Seattle Center
Sun 06:41:33 PM 48.1983 -120.8620 265° West 328 377 15,300 -99 Descending Seattle Center
Sun 06:42:34 PM 48.1908 -120.9920 261° West 328 377 15,300  Level Seattle Center
Sun 06:43:33 PM 48.1769 -121.1290 258° West 328 377 15,300 50 Level Seattle Center
Sun 06:44:33 PM 48.1586 -121.2560 256° West 328 377 15,400 50 Climbing Seattle Center
Sun 06:45:33 PM 48.1383 -121.3820 258° West 328 377 15,400  Level Seattle Center
Sun 06:46:33 PM 48.1197 -121.5150 262° West 328 377 15,400 50 Level Seattle Center
Sun 06:47:34 PM 48.1075 -121.6420 270° West 323 372 15,500 50 Climbing Seattle Center
Sun 06:48:33 PM 48.1075 -121.7630 281° West 323 372 15,500 50 Level Seattle Center
Sun 06:49:33 PM 48.1242 -121.8970 316° Northwest 328 377 15,600  Climbing Seattle Center
Sun 06:50:33 PM 48.1850 -121.9840 55° Northeast 317 365 15,500  Descending Seattle Center
Sun 06:51:33 PM 48.2411 -121.8650 96° East 199 229 15,600 50 Climbing Seattle Center
Sun 06:52:33 PM 48.2292 -121.7020 99° East 242 278 15,600 50 Level Seattle Center
Sun 06:53:34 PM 48.2131 -121.5460 98° East 305 351 15,700 50 Climbing Seattle Center
Sun 06:54:33 PM 48.1986 -121.3870 100° East 354 407 15,700  Level Seattle Center
Sun 06:55:34 PM 48.1797 -121.2280 102° East 374 430 15,700 50 Level Seattle Center
Sun 06:56:34 PM 48.1567 -121.0660 103° East 386 444 15,800 -50 Climbing Seattle Center
Sun 06:57:33 PM 48.1314 -120.9070 104° East 393 452 15,600 -100 Descending Seattle Center
Sun 06:58:34 PM 48.1017 -120.7320 99° East 393 452 15,600 99 Level Seattle Center
Sun 06:59:34 PM 48.0842 -120.5740 106° East 393 452 15,800 151 Climbing Seattle Center
Sun 07:00:33 PM 48.0539 -120.4180 105° East 393 452 15,900 -50 Climbing Seattle Center
Sun 07:01:33 PM 48.0275 -120.2660 95° East 387 445 15,700 -200 Descending Seattle Center
Sun 07:02:33 PM 48.0175 -120.1050 95° East 387 445 15,500 -99 Descending Seattle Center
Sun 07:03:34 PM 48.0075 -119.9440 97° East 387 445 15,500  Level Seattle Center
Sun 07:04:33 PM 47.9931 -119.7790 96° East 387 445 15,500  Level Seattle Center
Sun 07:05:34 PM 47.9825 -119.6190 97° East 387 445 15,500  Level Seattle Center
Sun 07:06:33 PM 47.9697 -119.4570 95° East 387 445 15,500  Level Seattle Center
Sun 07:07:34 PM 47.9608 -119.2960 97° East 387 445 15,500  Level Seattle Center
Sun 07:08:33 PM 47.9475 -119.1360 96° East 387 445 15,500  Level Seattle Center
Sun 07:09:33 PM 47.9361 -118.9750 96° East 387 445 15,500  Level Seattle Center
Sun 07:10:34 PM 47.9247 -118.8170 95° East 387 445 15,500  Level Seattle Center
Sun 07:11:33 PM 47.9150 -118.6570 97° East 387 445 15,500  Level Seattle Center
Sun 07:12:33 PM 47.9028 -118.4990 95° East 387 445 15,500  Level Seattle Center
Sun 07:13:33 PM 47.8928 -118.3420 95° East 387 445 15,500  Level Seattle Center
Sun 07:14:33 PM 47.8825 -118.1810 92° East 387 445 15,500  Level Seattle Center
Sun 07:15:34 PM 47.8781 -118.0240 23° Northeast 387 445 15,500  Level Seattle Center
Sun 07:16:34 PM 47.9667 -117.9680 295° West 282 325 15,500  Level Seattle Center
Sun 07:17:34 PM 48.0061 -118.0970 274° West 172 198 15,500  Level Seattle Center
Sun 07:18:33 PM 48.0122 -118.2430 276° West 245 282 15,500 -50 Level Seattle Center
Sun 07:19:33 PM 48.0222 -118.3910 277° West 301 346 15,400 -50 Descending Seattle Center
Sun 07:20:34 PM 48.0344 -118.5360 278° West 344 396 15,400  Level Seattle Center
Sun 07:21:34 PM 48.0483 -118.6850 280° West 364 419 15,400  Level Seattle Center
Sun 07:22:33 PM 48.0661 -118.8300 279° West 369 425 15,400 -50 Level Seattle Center
Sun 07:23:34 PM 48.0819 -118.9790 278° West 369 425 15,300  Descending Seattle Center
Sun 07:24:33 PM 48.0953 -119.1250 279° West 369 425 15,400 -50 Climbing Seattle Center
Sun 07:25:34 PM 48.1106 -119.2700 275° West 369 425 15,200 -50 Descending Seattle Center
Sun 07:26:34 PM 48.1194 -119.4100 176° South 364 419 15,300 202 Climbing Seattle Center
Sun 07:27:33 PM 48.0258 -119.4010 100° East 227 261 15,600 202 Climbing Seattle Center
Sun 07:28:33 PM 48.0086 -119.2500 75° East 182 209 15,700 -100 Climbing Seattle Center
Sun 07:29:33 PM 48.0347 -119.1040 334° Northwest 264 304 15,400 -100 Descending Seattle Center
Sun 07:30:33 PM 48.1225 -119.1680 260° West 181 208 15,500 100 Climbing Seattle Center
Sun 07:31:33 PM 48.1064 -119.3040 246° West 177 204 15,600 -50 Climbing Seattle Center
Sun 07:32:33 PM 48.0736 -119.4160 158° South 245 282 15,400 100 Descending Seattle Center
Sun 07:33:33 PM 47.9819 -119.3610 58° Northeast 208 239 15,800 50 Climbing Seattle Center
Sun 07:34:33 PM 48.0211 -119.2680 292° West 100 115 15,500 -150 Descending Seattle Center
Sun 07:35:33 PM 48.0569 -119.4010 282° West 163 188 15,500 150 Level Seattle Center
Sun 07:36:33 PM 48.0761 -119.5410 277° West 247 284 15,800 198 Climbing Seattle Center
Sun 07:37:34 PM 48.0886 -119.6890 275° West 321 369 15,900 150 Climbing Seattle Center
Sun 07:38:33 PM 48.0969 -119.8320 277° West 340 391 16,100  Climbing Seattle Center
Sun 07:39:33 PM 48.1094 -119.9780 277° West 353 406 15,900 -200 Descending Seattle Center
Sun 07:40:33 PM 48.1217 -120.1210 278° West 358 412 15,700 -50 Descending Seattle Center
Sun 07:41:33 PM 48.1356 -120.2670 275° West 358 412 15,800 150 Climbing Seattle Center
Sun 07:42:33 PM 48.1433 -120.4130 274° West 358 412 16,000 50 Climbing Seattle Center
Sun 07:43:33 PM 48.1506 -120.5620 272° West 358 412 15,900 -100 Descending Seattle Center
Sun 07:44:33 PM 48.1539 -120.7090 269° West 358 412 15,800 -150 Descending Seattle Center
Sun 07:45:33 PM 48.1528 -120.8240 273° West 352 405 15,600 -100 Descending Seattle Center
Sun 07:46:33 PM 48.1575 -120.9850 275° West 357 411 15,600 -50 Level Seattle Center
Sun 07:47:33 PM 48.1661 -121.1470 274° West 357 411 15,500 -50 Descending Seattle Center
Sun 07:48:33 PM 48.1728 -121.2900 276° West 352 405 15,500  Level Seattle Center
Sun 07:49:33 PM 48.1833 -121.4340 297° West 352 405 15,500  Level Seattle Center
Sun 07:50:34 PM 48.2233 -121.5530 28° Northeast 329 379 15,500  Level Seattle Center
Sun 07:51:33 PM 48.3117 -121.4810 92° East 223 257 15,500  Level Seattle Center
Sun 07:52:33 PM 48.3078 -121.3160 94° East 215 247 15,500  Level Seattle Center
Sun 07:53:34 PM 48.2994 -121.1470 96° East 297 342 15,500 50 Level Seattle Center
Sun 07:54:33 PM 48.2886 -120.9850 97° East 353 406 15,600 50 Climbing Seattle Center
Sun 07:55:33 PM 48.2756 -120.8170 97° East 386 444 15,600 50 Level Seattle Center
Sun 07:56:33 PM 48.2625 -120.6510 98° East 399 459 15,700 -50 Climbing Seattle Center
Sun 07:57:33 PM 48.2467 -120.4920 102° East 392 451 15,500  Descending Seattle Center
Sun 07:58:33 PM 48.2247 -120.3330 103° East 392 451 15,700 50 Climbing Seattle Center
Sun 07:59:33 PM 48.2003 -120.1770 106° East 392 451 15,600 -150 Descending Seattle Center
Sun 08:00:33 PM 48.1697 -120.0220 107° East 392 451 15,400 -150 Descending Seattle Center
Sun 08:01:33 PM 48.1386 -119.8660 109° East 392 451 15,300 100 Descending Seattle Center
Sun 08:02:33 PM 48.1033 -119.7170 98° East 392 451 15,600 200 Climbing Seattle Center
Sun 08:03:33 PM 48.0886 -119.5560 97° East 386 444 15,700  Climbing Seattle Center
Sun 08:04:33 PM 48.0756 -119.3920 87° East 386 444 15,600 -100 Descending Seattle Center
Sun 08:05:33 PM 48.0811 -119.2300 13° North 392 451 15,500 -50 Descending Seattle Center
Sun 08:06:33 PM 48.1747 -119.1980 286° West 271 312 15,500  Level Seattle Center
Sun 08:07:34 PM 48.2022 -119.3380 275° West 171 197 15,500 150 Level Seattle Center
Sun 08:08:33 PM 48.2111 -119.4900 275° West 255 293 15,800 50 Climbing Seattle Center
Sun 08:09:33 PM 48.2197 -119.6360 276° West 316 364 15,600 -100 Descending Seattle Center
Sun 08:10:33 PM 48.2303 -119.7790 274° West 337 388 15,600 50 Level Seattle Center
Sun 08:11:33 PM 48.2364 -119.9290 272° West 350 403 15,700 -50 Climbing Seattle Center
Sun 08:12:33 PM 48.2403 -120.0720 273° West 355 409 15,500 -200 Descending Seattle Center
Sun 08:13:33 PM 48.2461 -120.2180 271° West 355 409 15,300 -200 Descending Seattle Center
Sun 08:14:33 PM 48.2475 -120.3620 268° West 355 409 15,100 100 Descending Seattle Center
Sun 08:15:33 PM 48.2447 -120.5080 265° West 350 403 15,500 400 Climbing Seattle Center
Sun 08:16:33 PM 48.2375 -120.6410 237° Southwest 344 396 15,900 250 Climbing Seattle Center
Sun 08:17:33 PM 48.1867 -120.7560 247° West 325 374 16,000 50 Climbing Seattle Center
Sun 08:18:33 PM 48.1503 -120.8820 246° West 325 374 16,000  Level Seattle Center
Sun 08:19:33 PM 48.1117 -121.0090 244° Southwest 337 388 16,000 -350 Level Seattle Center
Sun 08:20:33 PM 48.0728 -121.1290 245° Southwest 337 388 15,300 -1,000 Descending Seattle Center
Sun 08:21:33 PM 48.0361 -121.2460 244° Southwest 327 376 14,000 -1,450 Descending Seattle Center
Sun 08:22:33 PM 48.0014 -121.3540 244° Southwest 313 360 12,400 -1,500 Descending Seattle Center
Sun 08:23:33 PM 47.9689 -121.4550 245° Southwest 307 353 11,000 -866 Descending Seattle Center
Sun 08:24:10 PM 47.9428 -121.5370 240° Southwest 298 343 11,000  Level Seattle Center
Sun 08:24:33 PM 47.9319 -121.5650 246° West 302 348 11,000  Level Seattle Center
Sun 08:25:05 PM 47.9122 -121.6320 240° Southwest 285 328 11,000  Level Seattle Center
Sun 08:25:33 PM 47.8992 -121.6660 237° Southwest 295 339 11,000  Level Seattle Center
Sun 08:26:06 PM 47.8711 -121.7300 217° Southwest 277 319 11,000 -300 Level Seattle Center
Sun 08:26:33 PM 47.8497 -121.7540 225° Southwest 282 325 10,700 -984 Descending Seattle Center
Sun 08:27:07 PM 47.8136 -121.8080 216° Southwest 279 321 10,000 -1,100 Descending Seattle Center
Sun 08:27:33 PM 47.7944 -121.8290 223° Southwest 282 325 9,600 -1,400 Descending Seattle Center
Sun 08:28:07 PM 47.7561 -121.8830 218° Southwest 243 280 8,600 -1,700 Descending Seattle Center
Sun 08:28:33 PM 47.7433 -121.8980 235° Southwest 263 303 7,900 -1,967 Descending Seattle Center
Sun 08:29:08 PM 47.7175 -121.9520 261° West 227 261 6,600 -1,600 Descending Seattle Center
Sun 08:29:33 PM 47.7147 -121.9770 258° West 237 273 6,300 -1,082 Descending Seattle Center
Sun 08:30:09 PM 47.7053 -122.0440 262° West 222 255 5,500 -1,300 Descending Seattle Center
Sun 08:30:33 PM 47.7028 -122.0690 268° West 218 251 5,000 -1,475 Descending Seattle Center
Sun 08:31:10 PM 47.7014 -122.1370 268° West 224 258 4,000 -1,400 Descending Seattle Center
Sun 08:31:33 PM 47.7008 -122.1580 266° West 218 251 3,600 -1,000 Descending Seattle Center
Sun 08:32:10 PM 47.6975 -122.2260 277° West 222 255 3,000 -600 Descending Seattle Center
Sun 08:32:33 PM 47.6992 -122.2470 263° West 218 251 3,000 -492 Level Seattle Center
Sun 08:33:11 PM 47.6936 -122.3150 254° West 221 254 2,500 -600 Descending Seattle Center
Sun 08:33:33 PM 47.6889 -122.3390 240° Southwest 218 251 2,400 -295 Descending Seattle Center
Sun 08:34:12 PM 47.6667 -122.3970 291° West 192 221 2,200 -200 Descending Seattle Center
Sun 08:34:33 PM 47.6725 -122.4190 154° Southeast 206 237 2,200 -300 Level Seattle Center
Sun 08:35:12 PM 47.6214 -122.3820 154° Southeast 182 209 1,900 -500 Descending Seattle Center
Sun 08:35:33 PM 47.6131 -122.3760 152° Southeast 157 181 1,700 -885 Descending Seattle Center
Sun 08:36:13 PM 47.5844 -122.3530 140° Southeast 154 177 1,000 -800 Descending Seattle Center
Sun 08:36:33 PM 47.5764 -122.3430 151° Southeast 119 137 900 -787 Descending Seattle Center
Sun 08:37:14 PM 47.5497 -122.3210 140° Southeast 151 174 200 15,100 Descending Seattle Center
Sun 08:37:33 PM 47.5417 -122.3110 169° South 125 144 16,000 11,850 Climbing Seattle Center
Sun 08:38:34 PM 47.5025 -122.3000 163° South 132 152 16,000  Level Seattle Center
Sun 08:39:33 PM 47.4653 -122.2830 162° South 132 152 16,000  Level Seattle Center
Sun 08:40:33 PM 47.4303 -122.2660 163° South 132 152 16,000  Level Seattle Center
Sun 08:41:33 PM 47.3931 -122.2490 162° South 132 152 16,000  Level Seattle Center
Sun 08:42:33 PM 47.3869 -122.2460 162° South 132 152 16,000  Level Seattle Center

Login

Don't have an account? Register now (free) for customized features, flight alerts, and more!